sensor_id;sensor_type;location;lat;lon;timestamp;temperature;humidity
69543;SHT31;56762;49.494;11.768;2022-09-13T00:00:09;12.74;87.86
69543;SHT31;56762;49.494;11.768;2022-09-13T00:02:37;12.72;88.25
69543;SHT31;56762;49.494;11.768;2022-09-13T00:05:05;12.77;88.26
69543;SHT31;56762;49.494;11.768;2022-09-13T00:07:33;12.75;87.92
69543;SHT31;56762;49.494;11.768;2022-09-13T00:10:01;12.72;87.99
69543;SHT31;56762;49.494;11.768;2022-09-13T00:12:29;12.72;87.90
69543;SHT31;56762;49.494;11.768;2022-09-13T00:14:58;12.72;87.95
69543;SHT31;56762;49.494;11.768;2022-09-13T00:17:25;12.74;88.10
69543;SHT31;56762;49.494;11.768;2022-09-13T00:19:53;12.75;88.20
69543;SHT31;56762;49.494;11.768;2022-09-13T00:22:22;12.75;87.87
69543;SHT31;56762;49.494;11.768;2022-09-13T00:24:50;12.72;88.24
69543;SHT31;56762;49.494;11.768;2022-09-13T00:27:18;12.68;87.80
69543;SHT31;56762;49.494;11.768;2022-09-13T00:29:45;12.68;87.93
69543;SHT31;56762;49.494;11.768;2022-09-13T00:32:15;12.67;87.58
69543;SHT31;56762;49.494;11.768;2022-09-13T00:34:42;12.65;87.60
69543;SHT31;56762;49.494;11.768;2022-09-13T00:37:10;12.65;87.52
69543;SHT31;56762;49.494;11.768;2022-09-13T00:39:38;12.64;87.32
69543;SHT31;56762;49.494;11.768;2022-09-13T00:42:08;12.62;87.24
69543;SHT31;56762;49.494;11.768;2022-09-13T00:44:58;12.64;87.32
69543;SHT31;56762;49.494;11.768;2022-09-13T00:47:33;12.64;86.86
69543;SHT31;56762;49.494;11.768;2022-09-13T00:50:07;12.61;86.84
69543;SHT31;56762;49.494;11.768;2022-09-13T00:52:40;12.58;87.26
69543;SHT31;56762;49.494;11.768;2022-09-13T00:55:15;12.55;87.26
69543;SHT31;56762;49.494;11.768;2022-09-13T00:57:44;12.55;87.76
69543;SHT31;56762;49.494;11.768;2022-09-13T01:00:15;12.52;87.61
69543;SHT31;56762;49.494;11.768;2022-09-13T01:02:48;12.54;87.23
69543;SHT31;56762;49.494;11.768;2022-09-13T01:05:20;12.49;86.89
69543;SHT31;56762;49.494;11.768;2022-09-13T01:07:49;12.45;86.88
69543;SHT31;56762;49.494;11.768;2022-09-13T01:10:17;12.47;87.01
69543;SHT31;56762;49.494;11.768;2022-09-13T01:12:48;12.42;87.18
69543;SHT31;56762;49.494;11.768;2022-09-13T01:15:18;12.36;87.74
69543;SHT31;56762;49.494;11.768;2022-09-13T01:17:49;12.37;88.12
69543;SHT31;56762;49.494;11.768;2022-09-13T01:20:24;12.38;88.13
69543;SHT31;56762;49.494;11.768;2022-09-13T01:29:24;12.38;87.99
69543;SHT31;56762;49.494;11.768;2022-09-13T01:32:04;12.36;88.12
69543;SHT31;56762;49.494;11.768;2022-09-13T01:34:42;12.34;87.91
69543;SHT31;56762;49.494;11.768;2022-09-13T01:40:17;12.37;88.02
69543;SHT31;56762;49.494;11.768;2022-09-13T01:43:00;12.33;87.60
69543;SHT31;56762;49.494;11.768;2022-09-13T01:45:36;12.30;87.26
69543;SHT31;56762;49.494;11.768;2022-09-13T01:48:09;12.23;87.05
69543;SHT31;56762;49.494;11.768;2022-09-13T01:50:45;12.20;86.88
69543;SHT31;56762;49.494;11.768;2022-09-13T01:53:22;12.20;87.10
69543;SHT31;56762;49.494;11.768;2022-09-13T01:55:56;12.18;86.74
69543;SHT31;56762;49.494;11.768;2022-09-13T01:58:28;12.14;86.68
69543;SHT31;56762;49.494;11.768;2022-09-13T02:01:05;12.10;86.63
69543;SHT31;56762;49.494;11.768;2022-09-13T02:03:38;12.06;86.66
69543;SHT31;56762;49.494;11.768;2022-09-13T02:06:11;12.09;87.42
69543;SHT31;56762;49.494;11.768;2022-09-13T02:08:42;12.07;87.34
69543;SHT31;56762;49.494;11.768;2022-09-13T02:11:13;12.06;87.32
69543;SHT31;56762;49.494;11.768;2022-09-13T02:13:46;12.06;87.28
69543;SHT31;56762;49.494;11.768;2022-09-13T02:16:18;12.09;87.42
69543;SHT31;56762;49.494;11.768;2022-09-13T02:18:53;12.06;86.91
69543;SHT31;56762;49.494;11.768;2022-09-13T02:21:26;12.07;86.71
69543;SHT31;56762;49.494;11.768;2022-09-13T02:24:00;12.07;86.56
69543;SHT31;56762;49.494;11.768;2022-09-13T02:26:29;12.03;86.57
69543;SHT31;56762;49.494;11.768;2022-09-13T02:28:59;11.99;87.00
69543;SHT31;56762;49.494;11.768;2022-09-13T02:31:33;11.97;87.32
69543;SHT31;56762;49.494;11.768;2022-09-13T02:34:08;11.97;87.62
69543;SHT31;56762;49.494;11.768;2022-09-13T02:36:40;11.91;88.38
69543;SHT31;56762;49.494;11.768;2022-09-13T02:39:12;11.91;88.54
69543;SHT31;56762;49.494;11.768;2022-09-13T02:41:45;11.93;88.73
69543;SHT31;56762;49.494;11.768;2022-09-13T02:44:21;11.97;89.15
69543;SHT31;56762;49.494;11.768;2022-09-13T02:47:08;11.99;88.79
69543;SHT31;56762;49.494;11.768;2022-09-13T02:49:46;11.96;89.29
69543;SHT31;56762;49.494;11.768;2022-09-13T02:52:21;11.97;89.51
69543;SHT31;56762;49.494;11.768;2022-09-13T02:54:56;11.94;89.47
69543;SHT31;56762;49.494;11.768;2022-09-13T02:57:28;11.94;89.45
69543;SHT31;56762;49.494;11.768;2022-09-13T02:59:58;11.90;89.17
69543;SHT31;56762;49.494;11.768;2022-09-13T03:02:30;11.80;89.34
69543;SHT31;56762;49.494;11.768;2022-09-13T03:05:00;11.82;88.97
69543;SHT31;56762;49.494;11.768;2022-09-13T03:07:28;11.79;88.49
69543;SHT31;56762;49.494;11.768;2022-09-13T03:10:00;11.76;88.63
69543;SHT31;56762;49.494;11.768;2022-09-13T03:15:32;11.73;88.17
69543;SHT31;56762;49.494;11.768;2022-09-13T03:18:12;11.75;88.40
69543;SHT31;56762;49.494;11.768;2022-09-13T03:20:49;11.73;88.54
69543;SHT31;56762;49.494;11.768;2022-09-13T03:23:45;11.76;88.56
69543;SHT31;56762;49.494;11.768;2022-09-13T03:26:25;11.80;88.72
69543;SHT31;56762;49.494;11.768;2022-09-13T03:29:09;11.80;88.25
69543;SHT31;56762;49.494;11.768;2022-09-13T03:31:46;11.79;87.89
69543;SHT31;56762;49.494;11.768;2022-09-13T03:34:22;11.73;87.35
69543;SHT31;56762;49.494;11.768;2022-09-13T03:36:54;11.69;87.42
69543;SHT31;56762;49.494;11.768;2022-09-13T03:39:28;11.68;87.56
69543;SHT31;56762;49.494;11.768;2022-09-13T03:42:02;11.66;87.13
69543;SHT31;56762;49.494;11.768;2022-09-13T03:44:33;11.62;87.49
69543;SHT31;56762;49.494;11.768;2022-09-13T03:47:03;11.59;87.62
69543;SHT31;56762;49.494;11.768;2022-09-13T03:49:32;11.59;88.02
69543;SHT31;56762;49.494;11.768;2022-09-13T03:52:05;11.61;88.32
69543;SHT31;56762;49.494;11.768;2022-09-13T03:54:36;11.63;88.66
69543;SHT31;56762;49.494;11.768;2022-09-13T03:57:13;11.63;88.51
69543;SHT31;56762;49.494;11.768;2022-09-13T03:59:44;11.65;88.71
69543;SHT31;56762;49.494;11.768;2022-09-13T04:02:12;11.63;89.36
69543;SHT31;56762;49.494;11.768;2022-09-13T04:04:42;11.66;89.26
69543;SHT31;56762;49.494;11.768;2022-09-13T04:07:12;11.68;89.18
69543;SHT31;56762;49.494;11.768;2022-09-13T04:09:40;11.70;89.11
69543;SHT31;56762;49.494;11.768;2022-09-13T04:12:08;11.73;89.14
69543;SHT31;56762;49.494;11.768;2022-09-13T04:14:36;11.73;88.94
69543;SHT31;56762;49.494;11.768;2022-09-13T04:17:04;11.68;89.22
69543;SHT31;56762;49.494;11.768;2022-09-13T04:19:32;11.72;89.68
69543;SHT31;56762;49.494;11.768;2022-09-13T04:22:00;11.73;89.91
69543;SHT31;56762;49.494;11.768;2022-09-13T04:24:29;11.76;89.97
69543;SHT31;56762;49.494;11.768;2022-09-13T04:26:57;11.76;89.91
69543;SHT31;56762;49.494;11.768;2022-09-13T04:29:25;11.79;89.21
69543;SHT31;56762;49.494;11.768;2022-09-13T04:31:54;11.76;89.63
69543;SHT31;56762;49.494;11.768;2022-09-13T04:34:22;11.76;89.34
69543;SHT31;56762;49.494;11.768;2022-09-13T04:36:51;11.79;89.30
69543;SHT31;56762;49.494;11.768;2022-09-13T04:39:20;11.80;89.38
69543;SHT31;56762;49.494;11.768;2022-09-13T04:41:51;11.79;89.23
69543;SHT31;56762;49.494;11.768;2022-09-13T04:44:21;11.77;89.27
69543;SHT31;56762;49.494;11.768;2022-09-13T04:46:50;11.79;88.92
69543;SHT31;56762;49.494;11.768;2022-09-13T04:49:18;11.82;89.29
69543;SHT31;56762;49.494;11.768;2022-09-13T04:51:47;11.82;89.21
69543;SHT31;56762;49.494;11.768;2022-09-13T04:54:16;11.83;89.00
69543;SHT31;56762;49.494;11.768;2022-09-13T04:56:44;11.86;88.79
69543;SHT31;56762;49.494;11.768;2022-09-13T04:59:14;11.89;87.60
69543;SHT31;56762;49.494;11.768;2022-09-13T05:01:42;11.83;86.82
69543;SHT31;56762;49.494;11.768;2022-09-13T05:04:10;11.85;86.67
69543;SHT31;56762;49.494;11.768;2022-09-13T05:06:38;11.77;86.37
69543;SHT31;56762;49.494;11.768;2022-09-13T05:09:05;11.73;86.54
69543;SHT31;56762;49.494;11.768;2022-09-13T05:11:33;11.70;87.59
69543;SHT31;56762;49.494;11.768;2022-09-13T05:14:01;11.72;88.18
69543;SHT31;56762;49.494;11.768;2022-09-13T05:16:32;11.73;88.30
69543;SHT31;56762;49.494;11.768;2022-09-13T05:19:00;11.77;88.64
69543;SHT31;56762;49.494;11.768;2022-09-13T05:21:28;11.86;89.04
69543;SHT31;56762;49.494;11.768;2022-09-13T05:23:56;11.90;88.65
69543;SHT31;56762;49.494;11.768;2022-09-13T05:26:25;11.96;88.54
69543;SHT31;56762;49.494;11.768;2022-09-13T05:28:54;11.99;89.36
69543;SHT31;56762;49.494;11.768;2022-09-13T05:31:23;12.06;89.56
69543;SHT31;56762;49.494;11.768;2022-09-13T05:33:55;12.12;89.29
69543;SHT31;56762;49.494;11.768;2022-09-13T05:36:24;12.18;89.64
69543;SHT31;56762;49.494;11.768;2022-09-13T05:38:53;12.24;89.50
69543;SHT31;56762;49.494;11.768;2022-09-13T05:41:40;12.33;89.92
69543;SHT31;56762;49.494;11.768;2022-09-13T05:44:08;12.34;89.70
69543;SHT31;56762;49.494;11.768;2022-09-13T05:46:39;12.38;89.58
69543;SHT31;56762;49.494;11.768;2022-09-13T05:49:11;12.45;89.94
69543;SHT31;56762;49.494;11.768;2022-09-13T05:51:39;12.48;89.92
69543;SHT31;56762;49.494;11.768;2022-09-13T05:54:10;12.52;89.75
69543;SHT31;56762;49.494;11.768;2022-09-13T05:56:38;12.58;90.00
69543;SHT31;56762;49.494;11.768;2022-09-13T05:59:06;12.62;89.83
69543;SHT31;56762;49.494;11.768;2022-09-13T06:01:34;12.68;89.75
69543;SHT31;56762;49.494;11.768;2022-09-13T06:04:02;12.71;89.75
69543;SHT31;56762;49.494;11.768;2022-09-13T06:06:31;12.78;89.70
69543;SHT31;56762;49.494;11.768;2022-09-13T06:09:00;12.85;89.78
69543;SHT31;56762;49.494;11.768;2022-09-13T06:11:28;12.89;89.67
69543;SHT31;56762;49.494;11.768;2022-09-13T06:13:56;12.92;89.54
69543;SHT31;56762;49.494;11.768;2022-09-13T06:16:24;12.99;89.51
69543;SHT31;56762;49.494;11.768;2022-09-13T06:18:52;13.03;89.72
69543;SHT31;56762;49.494;11.768;2022-09-13T06:21:21;13.09;89.63
69543;SHT31;56762;49.494;11.768;2022-09-13T06:23:55;13.10;89.49
69543;SHT31;56762;49.494;11.768;2022-09-13T06:26:25;13.13;89.26
69543;SHT31;56762;49.494;11.768;2022-09-13T06:28:55;13.16;89.29
69543;SHT31;56762;49.494;11.768;2022-09-13T06:31:25;13.24;89.30
69543;SHT31;56762;49.494;11.768;2022-09-13T06:33:58;13.33;89.14
69543;SHT31;56762;49.494;11.768;2022-09-13T06:36:26;13.39;88.94
69543;SHT31;56762;49.494;11.768;2022-09-13T06:38:55;13.42;88.49
69543;SHT31;56762;49.494;11.768;2022-09-13T06:41:26;13.49;88.55
69543;SHT31;56762;49.494;11.768;2022-09-13T06:43:55;13.50;88.22
69543;SHT31;56762;49.494;11.768;2022-09-13T06:46:25;13.56;88.33
69543;SHT31;56762;49.494;11.768;2022-09-13T06:48:53;13.63;88.30
69543;SHT31;56762;49.494;11.768;2022-09-13T06:51:22;13.64;88.24
69543;SHT31;56762;49.494;11.768;2022-09-13T06:53:51;13.68;88.31
69543;SHT31;56762;49.494;11.768;2022-09-13T06:56:25;13.74;88.27
69543;SHT31;56762;49.494;11.768;2022-09-13T06:58:55;13.78;88.12
69543;SHT31;56762;49.494;11.768;2022-09-13T07:01:25;13.82;87.95
69543;SHT31;56762;49.494;11.768;2022-09-13T07:03:57;13.84;87.83
69543;SHT31;56762;49.494;11.768;2022-09-13T07:06:26;13.80;87.28
69543;SHT31;56762;49.494;11.768;2022-09-13T07:08:56;13.81;87.42
69543;SHT31;56762;49.494;11.768;2022-09-13T07:11:27;13.84;87.74
69543;SHT31;56762;49.494;11.768;2022-09-13T07:13:57;13.84;87.95
69543;SHT31;56762;49.494;11.768;2022-09-13T07:16:26;13.91;87.67
69543;SHT31;56762;49.494;11.768;2022-09-13T07:18:56;13.92;87.90
69543;SHT31;56762;49.494;11.768;2022-09-13T07:21:25;13.97;87.71
69543;SHT31;56762;49.494;11.768;2022-09-13T07:23:54;14.00;87.77
69543;SHT31;56762;49.494;11.768;2022-09-13T07:26:22;14.02;87.95
69543;SHT31;56762;49.494;11.768;2022-09-13T07:28:55;14.08;87.58
69543;SHT31;56762;49.494;11.768;2022-09-13T07:31:25;14.11;87.54
69543;SHT31;56762;49.494;11.768;2022-09-13T07:33:54;14.17;87.25
69543;SHT31;56762;49.494;11.768;2022-09-13T07:36:22;14.24;87.61
69543;SHT31;56762;49.494;11.768;2022-09-13T07:38:50;14.26;87.54
69543;SHT31;56762;49.494;11.768;2022-09-13T07:41:20;14.26;87.39
69543;SHT31;56762;49.494;11.768;2022-09-13T07:43:48;14.29;87.16
69543;SHT31;56762;49.494;11.768;2022-09-13T07:46:19;14.33;87.59
69543;SHT31;56762;49.494;11.768;2022-09-13T07:48:48;14.40;87.12
69543;SHT31;56762;49.494;11.768;2022-09-13T07:51:17;14.43;87.34
69543;SHT31;56762;49.494;11.768;2022-09-13T07:53:47;14.52;87.23
69543;SHT31;56762;49.494;11.768;2022-09-13T07:56:23;14.59;87.30
69543;SHT31;56762;49.494;11.768;2022-09-13T07:58:51;14.67;87.23
69543;SHT31;56762;49.494;11.768;2022-09-13T08:01:23;14.75;87.16
69543;SHT31;56762;49.494;11.768;2022-09-13T08:03:52;14.87;87.18
69543;SHT31;56762;49.494;11.768;2022-09-13T08:06:20;14.96;87.10
69543;SHT31;56762;49.494;11.768;2022-09-13T08:08:48;15.04;86.39
69543;SHT31;56762;49.494;11.768;2022-09-13T08:11:17;15.12;86.06
69543;SHT31;56762;49.494;11.768;2022-09-13T08:13:46;15.21;86.14
69543;SHT31;56762;49.494;11.768;2022-09-13T08:16:15;15.28;85.84
69543;SHT31;56762;49.494;11.768;2022-09-13T08:18:46;15.38;85.58
69543;SHT31;56762;49.494;11.768;2022-09-13T08:21:15;15.49;85.44
69543;SHT31;56762;49.494;11.768;2022-09-13T08:23:43;15.59;85.18
69543;SHT31;56762;49.494;11.768;2022-09-13T08:26:11;15.65;84.71
69543;SHT31;56762;49.494;11.768;2022-09-13T08:28:40;15.72;84.70
69543;SHT31;56762;49.494;11.768;2022-09-13T08:31:10;15.77;84.85
69543;SHT31;56762;49.494;11.768;2022-09-13T08:33:42;15.81;84.65
69543;SHT31;56762;49.494;11.768;2022-09-13T08:36:14;15.85;84.85
69543;SHT31;56762;49.494;11.768;2022-09-13T08:38:47;15.88;84.59
69543;SHT31;56762;49.494;11.768;2022-09-13T08:41:40;15.92;84.74
69543;SHT31;56762;49.494;11.768;2022-09-13T08:44:19;15.92;84.81
69543;SHT31;56762;49.494;11.768;2022-09-13T08:46:53;15.98;84.81
69543;SHT31;56762;49.494;11.768;2022-09-13T08:49:27;15.98;84.64
69543;SHT31;56762;49.494;11.768;2022-09-13T08:52:00;15.99;84.51
69543;SHT31;56762;49.494;11.768;2022-09-13T08:54:31;15.98;84.56
69543;SHT31;56762;49.494;11.768;2022-09-13T08:57:03;15.99;83.97
69543;SHT31;56762;49.494;11.768;2022-09-13T08:59:43;16.00;84.05
69543;SHT31;56762;49.494;11.768;2022-09-13T09:02:27;16.00;84.19
69543;SHT31;56762;49.494;11.768;2022-09-13T09:05:02;16.03;84.61
69543;SHT31;56762;49.494;11.768;2022-09-13T09:07:35;16.08;84.70
69543;SHT31;56762;49.494;11.768;2022-09-13T09:10:13;16.12;84.51
69543;SHT31;56762;49.494;11.768;2022-09-13T09:12:44;16.21;84.16
69543;SHT31;56762;49.494;11.768;2022-09-13T09:15:14;16.29;84.09
69543;SHT31;56762;49.494;11.768;2022-09-13T09:17:49;16.43;84.00
69543;SHT31;56762;49.494;11.768;2022-09-13T09:20:29;16.57;83.97
69543;SHT31;56762;49.494;11.768;2022-09-13T09:23:02;16.67;83.91
69543;SHT31;56762;49.494;11.768;2022-09-13T09:25:33;16.79;83.79
69543;SHT31;56762;49.494;11.768;2022-09-13T09:28:05;16.92;83.43
69543;SHT31;56762;49.494;11.768;2022-09-13T09:30:42;16.98;82.82
69543;SHT31;56762;49.494;11.768;2022-09-13T09:33:22;17.11;82.02
69543;SHT31;56762;49.494;11.768;2022-09-13T09:35:59;17.15;82.10
69543;SHT31;56762;49.494;11.768;2022-09-13T09:38:37;17.22;82.23
69543;SHT31;56762;49.494;11.768;2022-09-13T09:41:13;17.26;82.15
69543;SHT31;56762;49.494;11.768;2022-09-13T09:43:45;17.32;81.91
69543;SHT31;56762;49.494;11.768;2022-09-13T09:46:15;17.32;81.51
69543;SHT31;56762;49.494;11.768;2022-09-13T09:48:49;17.36;81.58
69543;SHT31;56762;49.494;11.768;2022-09-13T09:51:18;17.35;81.47
69543;SHT31;56762;49.494;11.768;2022-09-13T09:53:52;17.38;80.90
69543;SHT31;56762;49.494;11.768;2022-09-13T09:56:24;17.38;81.54
69543;SHT31;56762;49.494;11.768;2022-09-13T09:58:53;17.35;81.31
69543;SHT31;56762;49.494;11.768;2022-09-13T10:01:23;17.40;81.31
69543;SHT31;56762;49.494;11.768;2022-09-13T10:04:00;17.43;81.27
69543;SHT31;56762;49.494;11.768;2022-09-13T10:06:30;17.46;81.17
69543;SHT31;56762;49.494;11.768;2022-09-13T10:09:02;17.51;81.55
69543;SHT31;56762;49.494;11.768;2022-09-13T10:11:43;17.60;80.31
69543;SHT31;56762;49.494;11.768;2022-09-13T10:14:34;17.67;80.19
69543;SHT31;56762;49.494;11.768;2022-09-13T10:17:08;17.69;80.46
69543;SHT31;56762;49.494;11.768;2022-09-13T10:19:41;17.76;80.15
69543;SHT31;56762;49.494;11.768;2022-09-13T10:22:17;17.79;80.00
69543;SHT31;56762;49.494;11.768;2022-09-13T10:24:46;17.80;79.63
69543;SHT31;56762;49.494;11.768;2022-09-13T10:27:23;17.84;80.01
69543;SHT31;56762;49.494;11.768;2022-09-13T10:29:55;17.90;80.67
69543;SHT31;56762;49.494;11.768;2022-09-13T10:32:25;17.96;80.34
69543;SHT31;56762;49.494;11.768;2022-09-13T10:34:54;17.96;80.01
69543;SHT31;56762;49.494;11.768;2022-09-13T10:37:25;18.00;79.87
69543;SHT31;56762;49.494;11.768;2022-09-13T10:40:01;18.01;80.05
69543;SHT31;56762;49.494;11.768;2022-09-13T10:42:32;18.05;79.86
69543;SHT31;56762;49.494;11.768;2022-09-13T10:45:01;18.08;79.41
69543;SHT31;56762;49.494;11.768;2022-09-13T10:47:33;18.10;79.69
69543;SHT31;56762;49.494;11.768;2022-09-13T10:50:19;18.15;79.69
69543;SHT31;56762;49.494;11.768;2022-09-13T10:52:48;18.25;79.08
69543;SHT31;56762;49.494;11.768;2022-09-13T10:55:33;18.25;78.99
69543;SHT31;56762;49.494;11.768;2022-09-13T10:58:16;18.31;79.81
69543;SHT31;56762;49.494;11.768;2022-09-13T11:01:12;18.32;78.86
69543;SHT31;56762;49.494;11.768;2022-09-13T11:06:56;18.42;79.01
69543;SHT31;56762;49.494;11.768;2022-09-13T11:09:32;18.44;79.11
69543;SHT31;56762;49.494;11.768;2022-09-13T11:12:07;18.47;79.50
69543;SHT31;56762;49.494;11.768;2022-09-13T11:14:48;18.49;79.07
69543;SHT31;56762;49.494;11.768;2022-09-13T11:17:28;18.58;78.56
69543;SHT31;56762;49.494;11.768;2022-09-13T11:20:17;18.69;79.43
69543;SHT31;56762;49.494;11.768;2022-09-13T11:23:05;18.77;78.48
69543;SHT31;56762;49.494;11.768;2022-09-13T11:25:49;18.88;78.28
69543;SHT31;56762;49.494;11.768;2022-09-13T11:28:26;18.95;78.59
69543;SHT31;56762;49.494;11.768;2022-09-13T11:31:07;19.09;78.43
69543;SHT31;56762;49.494;11.768;2022-09-13T11:33:46;19.16;78.41
69543;SHT31;56762;49.494;11.768;2022-09-13T11:36:45;19.28;77.94
69543;SHT31;56762;49.494;11.768;2022-09-13T11:39:22;19.38;77.85
69543;SHT31;56762;49.494;11.768;2022-09-13T11:42:04;19.55;75.68
69543;SHT31;56762;49.494;11.768;2022-09-13T11:51:04;19.92;74.85
69543;SHT31;56762;49.494;11.768;2022-09-13T11:53:50;19.91;74.30
69543;SHT31;56762;49.494;11.768;2022-09-13T11:56:25;19.96;73.84
69543;SHT31;56762;49.494;11.768;2022-09-13T11:58:58;20.06;73.26
69543;SHT31;56762;49.494;11.768;2022-09-13T12:01:35;20.08;73.81
69543;SHT31;56762;49.494;11.768;2022-09-13T12:04:07;20.13;73.39
69543;SHT31;56762;49.494;11.768;2022-09-13T12:06:41;20.15;73.73
69543;SHT31;56762;49.494;11.768;2022-09-13T12:09:14;20.19;74.42
69543;SHT31;56762;49.494;11.768;2022-09-13T12:11:48;20.16;73.58
69543;SHT31;56762;49.494;11.768;2022-09-13T12:14:21;20.13;73.76
69543;SHT31;56762;49.494;11.768;2022-09-13T12:16:53;20.18;74.05
69543;SHT31;56762;49.494;11.768;2022-09-13T12:19:27;20.25;73.42
69543;SHT31;56762;49.494;11.768;2022-09-13T12:21:58;20.25;72.08
69543;SHT31;56762;49.494;11.768;2022-09-13T12:24:31;20.30;71.68
69543;SHT31;56762;49.494;11.768;2022-09-13T12:27:04;20.29;72.54
69543;SHT31;56762;49.494;11.768;2022-09-13T12:29:42;20.36;71.86
69543;SHT31;56762;49.494;11.768;2022-09-13T12:32:13;20.41;71.45
69543;SHT31;56762;49.494;11.768;2022-09-13T12:34:45;20.39;71.54
69543;SHT31;56762;49.494;11.768;2022-09-13T12:37:25;20.39;71.69
69543;SHT31;56762;49.494;11.768;2022-09-13T12:40:19;20.41;72.20
69543;SHT31;56762;49.494;11.768;2022-09-13T12:45:59;20.41;72.85
69543;SHT31;56762;49.494;11.768;2022-09-13T12:48:41;20.47;71.58
69543;SHT31;56762;49.494;11.768;2022-09-13T12:51:25;20.50;71.52
69543;SHT31;56762;49.494;11.768;2022-09-13T12:54:32;20.44;71.92
69543;SHT31;56762;49.494;11.768;2022-09-13T12:57:16;20.51;69.00
69543;SHT31;56762;49.494;11.768;2022-09-13T13:00:19;20.39;69.77
69543;SHT31;56762;49.494;11.768;2022-09-13T13:03:00;20.34;70.24
69543;SHT31;56762;49.494;11.768;2022-09-13T13:05:35;20.30;70.50
69543;SHT31;56762;49.494;11.768;2022-09-13T13:08:05;20.32;68.63
69543;SHT31;56762;49.494;11.768;2022-09-13T13:10:42;20.43;68.01
69543;SHT31;56762;49.494;11.768;2022-09-13T13:13:13;20.40;68.85
69543;SHT31;56762;49.494;11.768;2022-09-13T13:15:59;20.32;69.75
69543;SHT31;56762;49.494;11.768;2022-09-13T13:18:29;20.20;70.48
69543;SHT31;56762;49.494;11.768;2022-09-13T13:21:33;20.13;71.15
69543;SHT31;56762;49.494;11.768;2022-09-13T13:24:36;20.08;71.21
69543;SHT31;56762;49.494;11.768;2022-09-13T13:27:34;19.99;71.67
69543;SHT31;56762;49.494;11.768;2022-09-13T13:30:39;19.96;71.18
69543;SHT31;56762;49.494;11.768;2022-09-13T13:33:26;19.89;71.44
69543;SHT31;56762;49.494;11.768;2022-09-13T13:35:54;19.82;71.44
69543;SHT31;56762;49.494;11.768;2022-09-13T13:38:44;19.74;72.23
69543;SHT31;56762;49.494;11.768;2022-09-13T13:41:37;19.67;72.82
69543;SHT31;56762;49.494;11.768;2022-09-13T13:50:28;19.62;69.10
69543;SHT31;56762;49.494;11.768;2022-09-13T13:52:58;19.60;70.29
69543;SHT31;56762;49.494;11.768;2022-09-13T13:55:43;19.51;70.68
69543;SHT31;56762;49.494;11.768;2022-09-13T13:58:29;19.57;69.85
69543;SHT31;56762;49.494;11.768;2022-09-13T14:00:59;19.61;70.42
69543;SHT31;56762;49.494;11.768;2022-09-13T14:03:38;19.60;70.51
69543;SHT31;56762;49.494;11.768;2022-09-13T14:06:11;19.57;71.02
69543;SHT31;56762;49.494;11.768;2022-09-13T14:08:54;19.58;70.45
69543;SHT31;56762;49.494;11.768;2022-09-13T14:11:42;19.55;71.04
69543;SHT31;56762;49.494;11.768;2022-09-13T14:14:27;19.53;70.76
69543;SHT31;56762;49.494;11.768;2022-09-13T14:17:22;19.51;71.36
69543;SHT31;56762;49.494;11.768;2022-09-13T14:19:58;19.46;72.17
69543;SHT31;56762;49.494;11.768;2022-09-13T14:22:27;19.44;72.57
69543;SHT31;56762;49.494;11.768;2022-09-13T14:24:58;19.35;74.30
69543;SHT31;56762;49.494;11.768;2022-09-13T14:27:41;19.30;73.35
69543;SHT31;56762;49.494;11.768;2022-09-13T14:30:21;19.26;73.40
69543;SHT31;56762;49.494;11.768;2022-09-13T14:32:52;19.16;73.46
69543;SHT31;56762;49.494;11.768;2022-09-13T14:35:25;19.13;73.56
69543;SHT31;56762;49.494;11.768;2022-09-13T14:37:54;19.11;73.84
69543;SHT31;56762;49.494;11.768;2022-09-13T14:40:24;19.10;73.49
69543;SHT31;56762;49.494;11.768;2022-09-13T14:42:54;19.14;73.52
69543;SHT31;56762;49.494;11.768;2022-09-13T14:45:25;19.14;73.28
69543;SHT31;56762;49.494;11.768;2022-09-13T14:47:56;19.13;73.15
69543;SHT31;56762;49.494;11.768;2022-09-13T14:50:31;19.20;72.89
69543;SHT31;56762;49.494;11.768;2022-09-13T14:53:02;19.24;72.96
69543;SHT31;56762;49.494;11.768;2022-09-13T14:55:33;19.27;73.08
69543;SHT31;56762;49.494;11.768;2022-09-13T14:58:07;19.26;72.81
69543;SHT31;56762;49.494;11.768;2022-09-13T15:00:48;19.24;73.00
69543;SHT31;56762;49.494;11.768;2022-09-13T15:03:17;19.26;72.95
69543;SHT31;56762;49.494;11.768;2022-09-13T15:05:51;19.31;73.21
69543;SHT31;56762;49.494;11.768;2022-09-13T15:08:41;19.30;73.11
69543;SHT31;56762;49.494;11.768;2022-09-13T15:11:15;19.31;72.96
69543;SHT31;56762;49.494;11.768;2022-09-13T15:13:44;19.28;73.40
69543;SHT31;56762;49.494;11.768;2022-09-13T15:16:27;19.27;73.72
69543;SHT31;56762;49.494;11.768;2022-09-13T15:19:13;19.24;74.38
69543;SHT31;56762;49.494;11.768;2022-09-13T15:21:41;19.24;74.06
69543;SHT31;56762;49.494;11.768;2022-09-13T15:24:19;19.21;74.40
69543;SHT31;56762;49.494;11.768;2022-09-13T15:26:48;19.19;74.71
69543;SHT31;56762;49.494;11.768;2022-09-13T15:29:18;19.14;74.84
69543;SHT31;56762;49.494;11.768;2022-09-13T15:31:46;19.09;74.94
69543;SHT31;56762;49.494;11.768;2022-09-13T15:34:21;19.06;75.19
69543;SHT31;56762;49.494;11.768;2022-09-13T15:37:06;19.13;75.28
69543;SHT31;56762;49.494;11.768;2022-09-13T15:39:44;19.17;74.32
69543;SHT31;56762;49.494;11.768;2022-09-13T15:42:14;19.19;74.66
69543;SHT31;56762;49.494;11.768;2022-09-13T15:44:43;19.19;75.05
69543;SHT31;56762;49.494;11.768;2022-09-13T15:47:15;19.24;75.16
69543;SHT31;56762;49.494;11.768;2022-09-13T15:49:47;19.23;75.10
69543;SHT31;56762;49.494;11.768;2022-09-13T15:52:17;19.21;75.27
69543;SHT31;56762;49.494;11.768;2022-09-13T15:54:47;19.16;75.36
69543;SHT31;56762;49.494;11.768;2022-09-13T15:57:18;19.14;75.55
69543;SHT31;56762;49.494;11.768;2022-09-13T15:59:49;19.17;75.62
69543;SHT31;56762;49.494;11.768;2022-09-13T16:02:21;19.14;75.69
69543;SHT31;56762;49.494;11.768;2022-09-13T16:04:49;19.09;76.23
69543;SHT31;56762;49.494;11.768;2022-09-13T16:07:17;19.07;76.13
69543;SHT31;56762;49.494;11.768;2022-09-13T16:09:46;18.99;76.29
69543;SHT31;56762;49.494;11.768;2022-09-13T16:12:15;18.93;76.77
69543;SHT31;56762;49.494;11.768;2022-09-13T16:14:44;18.88;76.90
69543;SHT31;56762;49.494;11.768;2022-09-13T16:17:18;18.80;77.22
69543;SHT31;56762;49.494;11.768;2022-09-13T16:19:46;18.79;77.24
69543;SHT31;56762;49.494;11.768;2022-09-13T16:22:14;18.72;77.24
69543;SHT31;56762;49.494;11.768;2022-09-13T16:24:42;18.69;77.43